Map

Track Data

SID SEASON NUMBER BASIN SUBBASIN NAME ISO_TIME NATURE LAT LON WMO_WIND WMO_PRES WMO_AGENCY TRACK_TYPE DIST2LAND LANDFALL IFLAG USA_AGENCY USA_ATCF_ID USA_LAT USA_LON USA_RECORD USA_STATUS USA_WIND USA_PRES USA_SSHS USA_R34_NE USA_R34_SE USA_R34_SW USA_R34_NW USA_R50_NE USA_R50_SE USA_R50_SW USA_R50_NW USA_R64_NE USA_R64_SE USA_R64_SW USA_R64_NW USA_POCI USA_ROCI USA_RMW USA_EYE TOKYO_LAT TOKYO_LON TOKYO_GRADE TOKYO_WIND TOKYO_PRES TOKYO_R50_DIR TOKYO_R50_LONG TOKYO_R50_SHORT TOKYO_R30_DIR TOKYO_R30_LONG TOKYO_R30_SHORT TOKYO_LAND CMA_LAT CMA_LON CMA_CAT CMA_WIND CMA_PRES HKO_LAT HKO_LON HKO_CAT HKO_WIND HKO_PRES NEWDELHI_LAT NEWDELHI_LON NEWDELHI_GRADE NEWDELHI_WIND NEWDELHI_PRES NEWDELHI_CI NEWDELHI_DP NEWDELHI_POCI REUNION_LAT REUNION_LON REUNION_TYPE REUNION_WIND REUNION_PRES REUNION_TNUM REUNION_CI REUNION_RMW REUNION_R34_NE REUNION_R34_SE REUNION_R34_SW REUNION_R34_NW REUNION_R50_NE REUNION_R50_SE REUNION_R50_SW REUNION_R50_NW REUNION_R64_NE REUNION_R64_SE REUNION_R64_SW REUNION_R64_NW BOM_LAT BOM_LON BOM_TYPE BOM_WIND BOM_PRES BOM_TNUM BOM_CI BOM_RMW BOM_R34_NE BOM_R34_SE BOM_R34_SW BOM_R34_NW BOM_R50_NE BOM_R50_SE BOM_R50_SW BOM_R50_NW BOM_R64_NE BOM_R64_SE BOM_R64_SW BOM_R64_NW BOM_ROCI BOM_POCI BOM_EYE BOM_POS_METHOD BOM_PRES_METHOD NADI_LAT NADI_LON NADI_CAT NADI_WIND NADI_PRES WELLINGTON_LAT WELLINGTON_LON WELLINGTON_WIND WELLINGTON_PRES DS824_LAT DS824_LON DS824_STAGE DS824_WIND DS824_PRES TD9636_LAT TD9636_LON TD9636_STAGE TD9636_WIND TD9636_PRES TD9635_LAT TD9635_LON TD9635_WIND TD9635_PRES TD9635_ROCI NEUMANN_LAT NEUMANN_LON NEUMANN_CLASS NEUMANN_WIND NEUMANN_PRES MLC_LAT MLC_LON MLC_CLASS MLC_WIND MLC_PRES USA_GUST BOM_GUST BOM_GUST_PER REUNION_GUST REUNION_GUST_PER USA_SEAHGT USA_SEARAD_NE USA_SEARAD_SE USA_SEARAD_SW USA_SEARAD_NW STORM_SPEED STORM_DIR
1976113S04156 1976 46 SP EA WATOREA 1976-04-22 00:00:00 TS -3.60000 156.000 main 245 212 O________OO___ jtwc_sh SH261976 -3.60000 156.000 -1 -3.60000 156.000 TC -3.60000 156.000 4 19 145
1976113S04156 1976 46 SP EA WATOREA 1976-04-22 03:00:00 TS -4.37047 156.545 main 205 195 P________PP___ SH261976 -4.41264 156.535 -1 -4.41264 156.535 TC -4.28613 156.566 4 18 145
1976113S04156 1976 46 SP EA WATOREA 1976-04-22 06:00:00 TS -5.03922 157.012 main 195 155 O________OP___ jtwc_sh SH261976 -5.10000 157.000 -1 -5.10000 157.000 TC -4.91767 157.036 4 14 147
1976113S04156 1976 46 SP EA WATOREA 1976-04-22 09:00:00 TS -5.52165 157.310 main 155 124 P________PP___ SH261976 -5.56233 157.308 -1 -5.56233 157.308 TC -5.44028 157.313 4 8 159
1976113S04156 1976 46 SP EA WATOREA 1976-04-22 12:00:00 TS -5.80000 157.300 main 124 95 O________OO___ jtwc_sh SH261976 -5.80000 157.300 -1 -5.80000 157.300 TC -5.80000 157.300 4 6 231
1976113S04156 1976 46 SP EA WATOREA 1976-04-22 15:00:00 TS -5.88486 156.861 main 95 78 P________PP___ SH261976 -5.84521 156.817 -1 -5.84521 156.817 TC -5.96415 156.949 4 10 267
1976113S04156 1976 46 SP EA WATOREA 1976-04-22 18:00:00 TS -5.86187 156.271 main 78 40 O________OP___ jtwc_sh SH261976 -5.80000 156.200 -1 -5.80000 156.200 TC -5.98562 156.413 4 11 271
1976113S04156 1976 46 SP EA WATOREA 1976-04-22 21:00:00 TS -5.86965 155.799 main 40 24 P________PP___ SH261976 -5.83492 155.750 -1 -5.83492 155.750 TC -5.93910 155.895 4 7 267
1976113S04156 1976 46 SP EA WATOREA 1976-04-23 00:00:00 TS -5.90000 155.600 main 24 24 O________OO___ jtwc_sh SH261976 -5.90000 155.600 -1 -5.90000 155.600 TC -5.90000 155.600 4 1 141
1976113S04156 1976 46 SP EA WATOREA 1976-04-23 03:00:00 TS -5.98517 155.891 main 40 40 P________PP___ SH261976 -5.99257 155.937 -1 -5.99257 155.937 TC -5.97037 155.798 4 8 103
1976113S04156 1976 46 SP EA WATOREA 1976-04-23 06:00:00 TS -6.08758 156.412 main 67 57 O________OP___ jtwc_sh SH261976 -6.10000 156.500 -1 -6.10000 156.500 TC -6.06275 156.237 4 10 101
1976113S04156 1976 46 SP EA WATOREA 1976-04-23 09:00:00 TS -6.18620 156.903 main 65 65 P________PP___ SH261976 -6.19246 156.950 -1 -6.19246 156.950 TC -6.17368 156.808 4 10 102
1976113S04156 1976 46 SP EA WATOREA 1976-04-23 12:00:00 TS -6.30000 157.400 main 80 80 O________OO___ jtwc_sh SH261976 -6.30000 157.400 -1 -6.30000 157.400 TC -6.30000 157.400 4 10 104
1976113S04156 1976 46 SP EA WATOREA 1976-04-23 15:00:00 TS -6.43349 157.904 main 114 110 P________PP___ SH261976 -6.44246 157.850 -1 -6.44246 157.850 TC -6.41554 158.012 4 10 106
1976113S04156 1976 46 SP EA WATOREA 1976-04-23 18:00:00 TS -6.58256 158.400 main 112 100 O________OP___ jtwc_sh SH261976 -6.60000 158.300 -1 -6.60000 158.300 TC -6.54767 158.599 4 10 106
1976113S04156 1976 46 SP EA WATOREA 1976-04-23 21:00:00 TS -6.72535 158.916 main 103 95 P________PP___ SH261976 -6.73509 158.855 -1 -6.73509 158.855 TC -6.70588 159.037 4 9 112
1976113S04156 1976 46 SP EA WATOREA 1976-04-24 00:00:00 TS -6.90000 159.200 main 95 71 O________OO___ jtwc_sh SH261976 -6.90000 159.200 -1 -6.90000 159.200 TC -6.90000 159.200 4 5 159
1976113S04156 1976 46 SP EA WATOREA 1976-04-24 03:00:00 TS -7.15951 159.090 main 62 22 P________PP___ SH261976 -7.12720 159.145 -1 -7.12720 159.145 TC -7.22414 158.979 4 8 226
1976113S04156 1976 46 SP EA WATOREA 1976-04-24 06:00:00 TS -7.45660 158.626 main 11 11 O________OP___ jtwc_sh SH261976 -7.40000 158.700 -1 -7.40000 158.700 TC -7.56980 158.477 4 14 241
1976113S04156 1976 46 SP EA WATOREA 1976-04-24 09:00:00 TS -7.80699 157.889 main 47 11 P________PP___ SH261976 -7.78273 157.941 -1 -7.78273 157.941 TC -7.85551 157.786 4 17 251
1976113S04156 1976 46 SP EA WATOREA 1976-04-24 12:00:00 TS -8.00000 157.000 main 39 39 O________OO___ jtwc_sh SH261976 -8.00000 157.000 -1 -8.00000 157.000 TC -8.00000 157.000 4 17 271
1976113S04156 1976 46 SP EA WATOREA 1976-04-24 15:00:00 TS -7.76985 156.155 main 104 65 P________PP___ SH261976 -7.77492 156.134 -1 -7.77492 156.134 TC -7.75971 156.196 4 18 290
1976113S04156 1976 46 SP EA WATOREA 1976-04-24 18:00:00 TS -7.39878 155.312 main 70 65 O________OP___ jtwc_sh SH261976 -7.40000 155.300 -1 -7.40000 155.300 TC -7.39635 155.336 4 18 293
1976113S04156 1976 46 SP EA WATOREA 1976-04-24 21:00:00 TS -7.07157 154.491 main 102 102 P________PP___ SH261976 -7.06502 154.482 -1 -7.06502 154.482 TC -7.08467 154.509 4 14 277
1976113S04156 1976 46 SP EA WATOREA 1976-04-25 00:00:00 TS -7.22857 153.886 25 1004 bom main 163 163 O_____O_OOO___ jtwc_sh SH261976 -7.00000 153.800 -1 -8.20000 155.000 20 25 1004 1.50000 -9.00000 153.800 30 997 -7.00000 153.800 TC -7.00000 153.800 4 45 45 13 234
1976113S04156 1976 46 SP EA WATOREA 1976-04-25 03:00:00 TS -7.83174 153.454 main 237 237 P_____P_PPP___ SH261976 -7.47234 153.333 -1 -8.47112 154.235 20 26 1002 -9.48307 153.473 32 995 -7.47234 153.333 TC -7.40519 153.298 4 16 211
1976113S04156 1976 46 SP EA WATOREA 1976-04-25 06:00:00 TS -8.55503 153.094 main 325 261 O_____P_POP___ jtwc_sh SH261976 -8.20000 153.000 -1 -8.78181 153.523 20 27 1000 -9.95282 153.146 35 993 -8.20000 153.000 TC -8.04664 152.922 4 16 207
1976113S04156 1976 46 SP EA WATOREA 1976-04-25 09:00:00 TS -9.22387 152.740 main 251 212 P_____P_PPP___ SH261976 -8.87997 152.663 -1 -9.17340 152.918 20 29 999 -10.3962 152.821 37 991 -8.87997 152.663 TC -8.78984 152.635 4 14 208
1976113S04156 1976 46 SP EA WATOREA 1976-04-25 11:00:00 TS -9.61287 152.527 30 998 bom main 212 205 P_____O_PPP___ SH261976 -9.30925 152.478 -1 -9.50000 152.600 20 30 998 2.50000 -10.6706 152.607 39 990 -9.30925 152.478 TC -9.27528 152.475 4 45 45 13 207
1976113S04156 1976 46 SP EA WATOREA 1976-04-25 12:00:00 TS -9.77937 152.454 main 205 164 O_____P_OOO_O_ jtwc_sh SH261976 -9.50000 152.400 -1 -9.68655 152.472 20 30 997 -10.8000 152.500 40 990 -9.50000 152.400 TC -9.50000 152.400 4 -9.50000 152.800 TC 35 998 11 205
1976113S04156 1976 46 SP EA WATOREA 1976-04-25 15:00:00 TS -10.2515 152.230 main 164 153 P_____P_PPP_P_ SH261976 -9.92991 152.242 -1 -10.2980 152.173 20 33 996 -11.1567 152.183 43 987 -9.92991 152.242 TC -9.97797 152.192 4 -10.1176 152.495 TC 35 997 10 205
1976113S04156 1976 46 SP EA WATOREA 1976-04-25 17:00:00 TS -10.5545 152.088 35 996 bom main 153 142 P_____O_PPP_P_ SH261976 -10.1740 152.153 -1 -10.7000 152.000 30 35 996 3.00000 -11.3746 151.971 46 985 -10.1740 152.153 TC -10.2648 152.077 4 -10.5119 152.297 TC 35 996 49 49 10 205
1976113S04156 1976 46 SP EA WATOREA 1976-04-25 18:00:00 TS -10.7089 152.013 main 142 128 O_____P_POP_O_ jtwc_sh SH261976 -10.3000 152.100 -1 -10.8807 151.905 30 35 995 -11.4797 151.864 47 985 -10.3000 152.100 TC -10.4018 152.021 4 -10.7000 152.200 TC 35 996 10 208
1976113S04156 1976 46 SP EA WATOREA 1976-04-25 21:00:00 TS -11.1586 151.757 main 137 125 P_____P_PPP_P_ SH261976 -10.7424 151.887 -1 -11.3853 151.616 30 38 994 -11.7879 151.539 51 982 -10.7424 151.887 TC -10.7998 151.839 4 -11.2224 151.915 TC 37 995 10 211
1976113S04156 1976 46 SP EA WATOREA 1976-04-25 23:00:00 TS -11.4497 151.563 40 994 bom main 133 133 P_____O_PPP_P_ SH261976 -11.0473 151.706 -1 -11.7000 151.400 30 40 994 3.00000 -11.9944 151.315 53 980 -11.0473 151.706 TC -11.0646 151.689 4 -11.5442 151.711 TC 39 994 55 55 11 214
1976113S04156 1976 46 SP EA WATOREA 1976-04-26 00:00:00 TS -11.5952 151.454 main 142 135 O_____P_OOO_O_ jtwc_sh SH261976 -11.2000 151.600 -1 -11.8662 151.275 30 41 993 -12.1000 151.200 55 980 -11.2000 151.600 TC -11.2000 151.600 4 -11.7000 151.600 TC 40 994 11 219
1976113S04156 1976 46 SP EA WATOREA 1976-04-26 03:00:00 TS -12.0326 151.075 main 162 162 P_____P_PPP_P_ SH261976 -11.6500 151.230 -1 -12.3371 150.870 30 46 990 -12.4387 150.839 57 977 -11.6500 151.230 TC -11.6349 151.240 4 -12.1875 151.208 TC 45 991 12 222
1976113S04156 1976 46 SP EA WATOREA 1976-04-26 05:00:00 TS -12.3081 150.802 50 988 bom main 184 184 P_____O_PPP_P_ SH261976 -11.9500 150.947 -1 -12.6000 150.600 30 50 988 3.50000 -12.6687 150.591 59 975 -11.9500 150.947 TC -11.9291 150.963 4 -12.4755 150.933 TC 48 988 69 69 11 225
1976113S04156 1976 46 SP EA WATOREA 1976-04-26 06:00:00 TS -12.4369 150.666 main 193 193 O_____P_POP_O_ jtwc_sh SH261976 -12.1000 150.800 -1 -12.6956 150.480 30 50 987 -12.7849 150.465 60 975 -12.1000 150.800 TC -12.0778 150.817 4 -12.6000 150.800 TC 50 988 11 227
1976113S04156 1976 46 SP EA WATOREA 1976-04-26 09:00:00 TS -12.7887 150.268 main 235 235 P_____P_PPP_P_ SH261976 -12.5425 150.350 -1 -12.9234 150.135 30 50 984 -13.1387 150.083 62 972 -12.5425 150.350 TC -12.5317 150.361 4 -12.8499 150.450 TC 55 985 11 228
1976113S04156 1976 46 SP EA WATOREA 1976-04-26 11:00:00 TS -13.0288 150.002 50 982 bom main 258 269 P_____O_PPP_P_ SH261976 -12.8443 150.047 -1 -13.1000 149.900 30 50 982 3.50000 -13.3787 149.827 64 970 -12.8443 150.047 TC -12.8421 150.053 4 -13.0043 150.220 TC 58 982 69 69 11 227
1976113S04156 1976 46 SP EA WATOREA 1976-04-26 12:00:00 TS -13.1610 149.867 main 281 281 O_____P_OOO_O_ jtwc_sh SH261976 -13.0000 149.900 -1 -13.2272 149.770 30 51 981 -13.5000 149.700 65 970 -13.0000 149.900 TC -13.0000 149.900 4 -13.1000 150.100 TC 60 982 12 223
1976113S04156 1976 46 SP EA WATOREA 1976-04-26 15:00:00 TS -13.6074 149.450 main 333 333 P_____P_PPP_P_ SH261976 -13.4924 149.500 -1 -13.6783 149.364 30 56 978 -13.8478 149.272 66 968 -13.4924 149.500 TC -13.4859 149.415 4 -13.5200 149.700 TC 62 979 12 222
1976113S04156 1976 46 SP EA WATOREA 1976-04-26 17:00:00 TS -13.9215 149.174 60 976 bom main 374 374 P_____O_PPP_P_ SH261976 -13.8306 149.236 -1 -14.0000 149.100 30 60 976 4.00000 -14.0843 148.989 67 967 -13.8306 149.236 TC -13.8179 149.093 4 -13.8395 149.430 TC 64 976 84 84 12 220
1976113S04156 1976 46 SP EA WATOREA 1976-04-26 18:00:00 TS -14.0788 149.039 main 402 365 O_____P_POP_O_ jtwc_sh SH261976 -14.0000 149.100 -1 -14.1607 148.981 30 61 975 -14.2054 148.853 67 967 -14.0000 149.100 TC -13.9855 148.939 4 -14.0000 149.300 TC 65 976 12 220
1976113S04156 1976 46 SP EA WATOREA 1976-04-26 21:00:00 TS -14.5414 148.638 main 355 327 P_____P_PPP_P_ SH261976 -14.5001 148.628 -1 -14.6322 148.639 30 66 972 -14.5853 148.482 68 966 -14.5001 148.628 TC -14.4923 148.518 4 -14.4649 148.935 TC 70 973 12 219
1976113S04156 1976 46 SP EA WATOREA 1976-04-26 23:00:00 TS -14.8416 148.393 70 970 bom main 327 313 P_____O_PPP_P_ SH261976 -14.8334 148.330 -1 -14.9000 148.400 40 70 970 4.50000 -14.8571 148.282 69 965 -14.8334 148.330 TC -14.8310 148.292 4 -14.7614 148.708 TC 73 970 99 99 11 218
1976113S04156 1976 46 SP EA WATOREA 1976-04-27 00:00:00 TS -14.9859 148.280 main 313 289 O_____P_OOO_O_ jtwc_sh SH261976 -15.0000 148.200 -1 -15.0016 148.257 40 70 970 -15.0000 148.200 70 965 -15.0000 148.200 TC -15.0000 148.200 4 -14.9000 148.600 TC 75 970 11 217
1976113S04156 1976 46 SP EA WATOREA 1976-04-27 02:00:00 TS -15.2720 148.055 70 970 bom main 289 278 P_____O_PPP_P_ SH261976 -15.3333 147.958 -1 -15.2000 148.000 40 70 970 4.50000 -15.2965 148.040 70 965 -15.3333 147.958 TC -15.3563 148.021 4 -15.1492 148.360 TC 75 970 99 99 11 215
1976113S04156 1976 46 SP EA WATOREA 1976-04-27 03:00:00 TS -15.4189 147.963 main 278 249 P_____P_PPP_P_ SH261976 -15.4999 147.860 -1 -15.3308 147.918 40 71 970 -15.4512 147.976 70 965 -15.4999 147.860 TC -15.5356 147.949 4 -15.2650 148.248 TC 75 970 10 207
1976113S04156 1976 46 SP EA WATOREA 1976-04-27 05:00:00 TS -15.7142 147.828 75 970 bom main 249 243 P_____O_PPP_P_ SH261976 -15.8333 147.727 -1 -15.6000 147.800 40 75 970 4.50000 -15.7727 147.882 70 965 -15.8333 147.727 TC -15.8915 147.845 4 -15.4886 148.063 TC 75 970 104 104 10 201
1976113S04156 1976 46 SP EA WATOREA 1976-04-27 06:00:00 TS -15.8582 147.783 main 237 211 O_____P_POP_O_ jtwc_sh SH261976 -16.0000 147.700 -1 -15.7025 147.712 40 76 970 -15.9390 147.854 70 965 -16.0000 147.700 TC -16.0660 147.815 4 -15.6000 148.000 TC 75 970 9 191
1976113S04156 1976 46 SP EA WATOREA 1976-04-27 08:00:00 TS -16.1505 147.747 80 970 bom main 211 211 P_____O_PPP_P_ SH261976 -16.3658 147.704 -1 -15.9000 147.600 40 80 970 5.00000 -16.2815 147.840 70 965 -16.3658 147.704 TC -16.4031 147.804 4 -15.8060 147.909 TC 75 970 110 110 9 0
1976113S04156 1976 46 SP EA WATOREA 1976-04-27 09:00:00 TS -16.2989 147.768 main 217 207 P_____P_PPP_P_ SH261976 -16.5448 147.745 -1 -16.0145 147.624 40 83 970 -16.4573 147.855 70 965 -16.5448 147.745 TC -16.5635 147.824 4 -15.9123 147.895 TC 75 970 9 164
1976113S04156 1976 46 SP EA WATOREA 1976-04-27 11:00:00 TS -16.6007 147.884 90 970 bom main 211 206 P_____O_PPP_P_ SH261976 -16.8675 147.895 -1 -16.3000 147.800 40 90 970 5.50000 -16.8168 147.934 70 965 -16.8675 147.895 TC -16.8630 147.921 4 -16.1547 147.939 TC 75 970 124 124 10 156
1976113S04156 1976 46 SP EA WATOREA 1976-04-27 12:00:00 TS -16.7549 147.974 main 212 209 O_____P_OOO_O_ jtwc_sh SH261976 -17.0000 148.000 -1 -16.4842 147.917 40 90 971 -17.0000 148.000 70 965 -17.0000 148.000 TC -17.0000 148.000 4 -16.3000 148.000 TC 75 970 10 146
1976113S04156 1976 46 SP EA WATOREA 1976-04-27 14:00:00 TS -17.0276 148.190 90 974 bom main 227 225 P_____O_PPP_P_ SH261976 -17.1644 148.237 -1 -16.9000 148.200 40 90 974 5.50000 -17.3319 148.150 69 965 -17.1644 148.237 TC -17.1273 148.193 4 -16.6333 148.182 TC 71 972 124 124 11 140
1976113S04156 1976 46 SP EA WATOREA 1976-04-27 15:00:00 TS -17.1596 148.321 main 234 234 P_____P_PPP_P_ SH261976 -17.2225 148.383 -1 -17.0911 148.326 40 90 975 -17.5003 148.251 68 966 -17.2225 148.383 TC -17.1733 148.320 4 -16.8250 148.310 TC 70 974 12 135
1976113S04156 1976 46 SP EA WATOREA 1976-04-27 17:00:00 TS -17.4395 148.629 90 978 bom main 257 249 P_____O_PPP_P_ SH261976 -17.3319 148.717 -1 -17.5000 148.600 40 90 978 5.50000 -17.8478 148.501 67 967 -17.3319 148.717 TC -17.2590 148.628 4 -17.2583 148.623 TC 66 976 124 124 13 134
1976113S04156 1976 46 SP EA WATOREA 1976-04-27 18:00:00 TS -17.5977 148.803 main 249 237 O_____P_POP_O_ jtwc_sh SH261976 -17.4000 148.900 -1 -17.7444 148.765 40 90 978 -18.0293 148.649 67 967 -17.4000 148.900 TC -17.3103 148.805 4 -17.5000 148.800 TC 65 978 15 134
1976113S04156 1976 46 SP EA WATOREA 1976-04-27 21:00:00 TS -18.1285 149.372 main 241 217 P_____P_PPP_P_ SH261976 -17.5926 149.479 -1 -18.5963 149.356 40 90 979 -18.6186 149.172 66 968 -17.5926 149.479 TC -17.5670 149.411 4 -18.3124 149.355 TC 62 979 16 136
1976113S04156 1976 46 SP EA WATOREA 1976-04-27 23:00:00 TS -18.5711 149.798 90 980 bom main 217 209 P_____O_PPP_P_ SH261976 -17.8727 149.893 -1 -19.2000 149.800 40 90 980 5.00000 -19.0607 149.580 65 969 -17.8727 149.893 TC -17.8819 149.863 4 -18.9035 149.778 TC 60 979 124 124 19 139
1976113S04156 1976 46 SP EA WATOREA 1976-04-28 00:00:00 TS -18.8265 150.016 main 209 192 O_____P_OOO_O_ jtwc_sh SH261976 -18.1000 150.100 -1 -19.4858 150.014 40 86 980 -19.3000 149.800 65 970 -18.1000 150.100 TC -18.1000 150.100 4 -19.2000 150.000 TC 60 980 22 147
1976113S04156 1976 46 SP EA WATOREA 1976-04-28 03:00:00 TS -19.7652 150.628 main 193 193 P_____P_PPP_P_ SH261976 -19.1993 150.642 -1 -20.3409 150.700 40 76 980 -20.0694 150.363 62 972 -19.1993 150.642 TC -19.1334 150.684 4 -20.0571 150.663 TC 60 980 23 149
1976113S04156 1976 46 SP EA WATOREA 1976-04-28 05:00:00 TS -20.4735 151.086 70 980 bom main 208 189 P_____O_PPP_P_ SH261976 -20.1243 151.055 -1 -20.9000 151.200 40 70 980 4.50000 -20.6360 150.799 60 974 -20.1243 151.055 TC -19.9860 151.123 4 -20.6221 151.145 TC 60 980 99 99 25 148
1976113S04156 1976 46 SP EA WATOREA 1976-04-28 06:00:00 TS -20.8343 151.337 main 189 151 O_____P_POP_O_ jtwc_sh SH261976 -20.6000 151.300 -1 -21.1616 151.454 40 68 980 -20.9341 151.042 60 975 -20.6000 151.300 TC -20.4447 151.365 4 -20.9000 151.400 TC 60 980 26 144
1976113S04156 1976 46 SP EA WATOREA 1976-04-28 09:00:00 TS -21.8990 152.175 main 158 154 P_____P_PPP_P_ SH261976 -21.9708 152.152 -1 -21.9398 152.280 40 63 980 -21.8819 151.899 57 977 -21.9708 152.152 TC -21.8839 152.213 4 -21.6768 152.192 TC 60 980 27 142
1976113S04156 1976 46 SP EA WATOREA 1976-04-28 11:00:00 TS -22.6225 152.844 60 980 bom main 196 188 P_____O_PPP_P_ SH261976 -22.8722 152.879 -1 -22.5000 152.900 30 60 980 4.00000 -22.5537 152.602 55 979 -22.8722 152.879 TC -22.8399 152.907 4 -22.2126 152.782 TC 60 980 84 84 29 139
1976113S04156 1976 46 SP EA WATOREA 1976-04-28 12:00:00 TS -22.9848 153.214 main 188 141 O_____P_OOO_O_ jtwc_sh SH261976 -23.3000 153.300 -1 -22.7936 153.198 30 58 981 -22.9000 153.000 55 980 -23.3000 153.300 TC -23.3000 153.300 4 -22.5000 153.100 TC 60 980 31 133
1976113S04156 1976 46 SP EA WATOREA 1976-04-28 15:00:00 TS -24.0495 154.485 main 150 147 P_____P_PPP_P_ SH261976 -24.4375 154.790 -1 -23.7612 154.218 30 53 986 -23.9723 154.384 51 982 -24.4375 154.790 TC -24.4539 154.715 4 -23.4595 154.153 TC 52 985 33 131
1976113S04156 1976 46 SP EA WATOREA 1976-04-28 17:00:00 TS -24.8086 155.513 50 990 bom main 212 221 P_____O_PPP_P_ SH261976 -25.1462 155.920 -1 -24.5000 155.100 30 50 990 3.50000 -24.7171 155.455 48 984 -25.1462 155.920 TC -25.1899 155.799 4 -24.1498 154.912 TC 47 988 69 69 38 128
1976113S04156 1976 46 SP EA WATOREA 1976-04-28 18:00:00 TS -25.2217 156.110 main 272 272 O_____P_POP_O_ jtwc_sh SH261976 -25.5000 156.500 -1 -24.9054 155.659 30 48 990 -25.0933 156.027 47 985 -25.5000 156.500 TC -25.5511 156.373 4 -24.5000 155.300 TC 45 990 41 126
1976113S04156 1976 46 SP EA WATOREA 1976-04-28 21:00:00 TS -26.4223 157.985 main 478 478 P_____P_PPP___ SH261976 -26.5915 158.238 -1 -26.2178 157.600 30 43 993 -26.2168 157.857 43 987 -26.5915 158.238 TC -26.6215 158.170 4 TC 41 125
1976113S04156 1976 46 SP EA WATOREA 1976-04-28 23:00:00 TS -27.2074 159.254 40 995 bom main 571 578 P_____O_PPP___ SH261976 -27.3270 159.416 -1 -27.1000 158.900 30 40 995 3.00000 -26.9458 159.144 41 989 -27.3270 159.416 TC -27.3372 159.393 4 TC 55 55 41 125
1976113S04156 1976 46 SP EA WATOREA 1976-04-29 00:00:00 TS -27.5849 159.858 main 621 621 O_____P_OOO___ jtwc_sh SH261976 -27.7000 160.000 -1 -27.5247 159.489 30 40 994 -27.3000 159.800 40 990 -27.7000 160.000 TC -27.7000 160.000 4 38 126
1976113S04156 1976 46 SP MM WATOREA 1976-04-29 03:00:00 TS -28.6698 161.543 main 769 769 P_____P_PPP___ SH261976 -28.8396 161.697 -1 -28.7300 160.988 30 41 991 -28.1357 161.729 40 990 -28.8396 161.697 TC -28.8044 161.606 4 37 126
1976113S04156 1976 46 SP MM WATOREA 1976-04-29 06:00:00 TS -29.7416 163.246 main 886 829 O_____P_POP___ jtwc_sh SH261976 -30.0000 163.400 -1 -29.8595 162.166 30 42 989 -28.9459 163.748 40 990 -30.0000 163.400 TC -29.9322 163.245 4 37 125
1976113S04156 1976 46 SP MM WATOREA 1976-04-29 09:00:00 TS -30.8217 165.030 main 821 603 P_____P_PPP___ SH261976 -31.1370 165.111 -1 -30.9418 163.132 30 43 987 -29.8576 165.839 40 990 -31.1370 165.111 TC -31.0950 165.009 4 40 124
1976113S04156 1976 46 SP MM WATOREA 1976-04-29 12:00:00 TS -31.9765 167.059 40 990 wellington main 581 336 O_____O_OOO___ jtwc_sh SH261976 -32.3000 167.000 -1 -32.0000 164.000 51 45 985 -31.0000 168.000 40 990 -32.3000 167.000 TC -32.3000 167.000 4 64 64 45 123
1976113S04156 1976 46 SP MM WATOREA 1976-04-29 15:00:00 TS -33.2420 169.476 main 320 73 P_______PPP___ SH261976 -33.4793 169.179 -1 51 -32.4659 170.245 43 987 -33.4793 169.179 TC -33.5434 169.302 4 49 123
1976113S04156 1976 46 SP MM WATOREA 1976-04-29 18:00:00 TS -34.5976 171.974 main 55 0 O_______POP___ jtwc_sh SH261976 -34.7000 171.700 -1 51 -34.1934 172.600 47 985 -34.7000 171.700 TC -34.7971 171.894 4 51 123
1976113S04156 1976 46 SP MM WATOREA 1976-04-29 21:00:00 TS -36.0057 174.738 main 14 14 P_______PPP___ SH261976 -35.9602 174.574 -1 51 -36.0757 175.083 51 982 -35.9602 174.574 TC -36.0268 174.718 4 54 121
1976113S04156 1976 46 SP MM WATOREA 1976-04-30 00:00:00 TS -37.4000 177.700 55 980 wellington main 34 O_______OOO___ jtwc_sh SH261976 -37.2000 177.700 -1 51 -38.0000 177.700 55 980 -37.2000 177.700 TC -37.2000 177.700 4 55 121

Digital Typhoon Data and Search

About IBTrACS Database

This database is a web-friendly format of International Best Track Archive for Climate Stewardship (IBTrACS), a global best track data archive curated by NOAA dating back to 1842.

Updated: 2021-12-01